רגע לפני שאתם עוזבים...
יש לנו ב
הצעה מיוחד עבורכם!
מספר שירותים שכדאי שתכירו
| לוחית | שעת חיפוש | ||||
| 3281634 | מיצובישי יפן | OUTLANDER | 2015 | 02/09/2026 | 23:03:03 |
| 6178227 | מזדה יפן | LANTIS 323 | 1999 | 02/09/2026 | 23:03:02 |
| 1278863 | הונדה יפן | ACCORD | 2007 | 02/09/2026 | 23:03:02 |
| 17570201 | יונדאי טורקיה | I10 | 2018 | 02/09/2026 | 23:03:01 |
| 74249103 | טויוטה טורקיה | COROLLA SDN HSD | 2024 | 02/09/2026 | 23:03:01 |
| 2920068 | סיטרואן צרפת | C5 | 2009 | 02/09/2026 | 23:03:00 |
| 62115701 | סוזוקי הונגריה | VITARA | 2019 | 02/09/2026 | 23:02:59 |
| 4797109 | טויוטה יפן | - | 1995 | 02/09/2026 | 23:02:59 |
| 5134358 | קרייזלר מכסיקו | - | 2014 | 02/09/2026 | 23:02:58 |
| 9205873 | מגט ישראל בעמ" | - | 2012 | 02/09/2026 | 23:02:58 |
| 1021433 | פיאט פולין | FIAT 500 1.2 | 2015 | 02/09/2026 | 23:02:57 |
| 1380033 | ניסאן יפן | INFINITI Q50 | 2015 | 02/09/2026 | 23:02:57 |
| 9327784 | סוזוקי הונגריה | SX4 CROSSOVER | 2017 | 02/09/2026 | 23:02:56 |
| 10927004 | סיאט ספרד | IBIZA | 2025 | 02/09/2026 | 23:02:56 |
| 1201471 | פולקסווגן מקסיקה | JETTA | 2010 | 02/09/2026 | 23:02:56 |
| 1229430 | סובארו יפן | FORESTER | 2014 | 02/09/2026 | 23:02:54 |
| 75497002 | סקודה צ'כיה | OCTAVIA | 2022 | 02/09/2026 | 23:02:45 |
| 11070302 | קי.טי.אמ אוסטר | - | 2020 | 02/09/2026 | 23:02:44 |
| 2028378 | קרייזלר מכסיקו | - | 2011 | 02/09/2026 | 23:02:43 |
| 5754065 | מזדה יפן | MAZDA3 | 2008 | 02/09/2026 | 23:02:43 |
| 17340104 | קיה קוריאה הדרומית | SELTOS | 2025 | 02/09/2026 | 23:02:39 |
| 52087901 | יונדאי קוריאה הדרומית | IONIQ HYBRID | 2018 | 02/09/2026 | 23:02:38 |
| 11323302 | פיג'ו ספרד | 2008 | 2020 | 02/09/2026 | 23:02:38 |
| 70622002 | טויוטה צרפת | YARIS | 2021 | 02/09/2026 | 23:02:38 |
| 40816801 | קיה סלובקיה | SPORTAGE | 2018 | 02/09/2026 | 23:02:35 |
| 1286430 | סובארו יפן | FORESTER | 2014 | 02/09/2026 | 23:02:34 |
| 87798003 | סיטרואן ספרד | BERLINGO | 2024 | 02/09/2026 | 23:02:33 |
| 6702453 | סקודה צ'כיה | OCTAVIA | 2014 | 02/09/2026 | 23:02:32 |
| 14860501 | קיה סלובקיה | CEED | 2018 | 02/09/2026 | 23:02:32 |
| 7190200 | איפור ויליאמס | - | 1993 | 02/09/2026 | 23:02:28 |
| 4221260 | יונדאי קוריאה הדרומית | ACCENT | 2006 | 02/09/2026 | 23:02:27 |
| 59731004 | טויוטה תאילנד | HILUX | 2026 | 02/09/2026 | 23:02:27 |
| 1137130 | דייהטסו יפן | סדן שרייד אוטומטי | 1997 | 02/09/2026 | 23:02:27 |
| 1610075 | סובארו יפן | B4 | 2011 | 02/09/2026 | 23:02:26 |
| 4119285 | קיה סלובקיה | SPORTAGE | 2017 | 02/09/2026 | 23:02:25 |
| 16096903 | יונדאי קוריאה הדרומית | VENUE | 2022 | 02/09/2026 | 23:02:25 |
| 36985901 | ב מ וו גרמניה | 530E IPERFORMAN | 2017 | 02/09/2026 | 23:02:24 |
| 4115656 | אאודי גרמניה | A8 | 2004 | 02/09/2026 | 23:02:23 |
| 60200004 | קופרה ספרד | CUPRA LEON | 2026 | 02/09/2026 | 23:02:20 |
| 49126003 | סיטרואן ספרד | BERLINGO | 2023 | 02/09/2026 | 23:02:19 |
| 4989567 | קיה קוריאה הדרומית | SPORTAGE | 2008 | 02/09/2026 | 23:02:18 |
| 67304901 | וולבו בלגיה | V40 T3 | 2019 | 02/09/2026 | 23:02:17 |
| 4819661 | פורד ספרד | FOCUS | 2007 | 02/09/2026 | 23:02:10 |
| 87702102 | יונדאי קוריאה הדרומית | IONIQ HYBRID | 2022 | 02/09/2026 | 23:02:10 |
| 3796572 | שברולט קוריאה הדרומית | CRUZE I.6 LS | 2010 | 02/09/2026 | 23:02:10 |
| 4647750 | פולקסווגן גרמנ | GOLF | 2003 | 02/09/2026 | 23:02:07 |
| 32884501 | בומברדיה מקסיק | - | 2024 | 02/09/2026 | 23:02:01 |
| 41209804 | קיה קוריאה הדרומית | PICANTO | 2025 | 02/09/2026 | 23:01:59 |
| 60943402 | סקודה צ'כיה | SUPERB FL | 2021 | 02/09/2026 | 23:01:57 |
| 59409503 | ניסאן מקסיקו | SENTRA | 2024 | 02/09/2026 | 23:01:57 |
| 9971854 | מזדה יפן | MAZDA 3 | 2016 | 02/09/2026 | 23:01:55 |
| 7870266 | טויוטה יפן | RAV 4 | 2008 | 02/09/2026 | 23:01:55 |
| 21592601 | ניסאן בריטניה | QASHQAI | 2018 | 02/09/2026 | 23:01:55 |
| 1603278 | פיאט פולין | FIAT 500 1.2 | 2011 | 02/09/2026 | 23:01:53 |
| 7026711 | מזדה יפן | MAZDA 3 | 2014 | 02/09/2026 | 23:01:53 |
| 5892133 | קיה קוריאה הדרומית | PICANTO | 2015 | 02/09/2026 | 23:01:53 |
| 7726653 | פולקסווגן מקסיקה | JETTA | 2015 | 02/09/2026 | 23:01:52 |
| 57748201 | אאודי גרמניה | A3 SB E-TRON | 2018 | 02/09/2026 | 23:01:51 |
| 63794602 | מיצובישי יפן | OUTLANDER | 2022 | 02/09/2026 | 23:01:51 |
| 1137968 | סוזוקי יפן | SX4 | 2009 | 02/09/2026 | 23:01:50 |
| 10927004 | סיאט ספרד | IBIZA | 2025 | 02/09/2026 | 23:01:49 |
| 36985901 | ב מ וו גרמניה | 530E IPERFORMAN | 2017 | 02/09/2026 | 23:01:45 |
| 5535831 | הונדה בריטניה | CR-V | 2014 | 02/09/2026 | 23:01:44 |
| 45276901 | טויוטה טורקיה | C-HR HYBRID | 2018 | 02/09/2026 | 23:01:42 |
| 24666702 | סקודה צ'כיה | OCTAVIA | 2020 | 02/09/2026 | 23:01:39 |
| 23408403 | פולקסווגן מקסיקה | TIGUAN ALLSPACE | 2022 | 02/09/2026 | 23:01:39 |
| 31442103 | לינק אנד קו סין | LYNKCO 01 | 2024 | 02/09/2026 | 23:01:37 |
| 34434601 | מזדה יפן | MAZDA 3 | 2018 | 02/09/2026 | 23:01:36 |
| 45731101 | טויוטה יפן | RAV 4 HYBRID | 2018 | 02/09/2026 | 23:01:35 |
| 51585504 | ג'אקו סין | JAECOO8 PHEV | 2026 | 02/09/2026 | 23:01:34 |
| 9552075 | טרינגו צרפת | - | 2014 | 02/09/2026 | 23:01:34 |
| 15330303 | מזדה תאילנד | MAZDA 2 | 2022 | 02/09/2026 | 23:01:29 |
| 77774202 | ב מ וו גרמניה | M4 COMPETITION | 2022 | 02/09/2026 | 23:01:29 |
| 67424001 | וולבו צרפת | - | 2019 | 02/09/2026 | 23:01:29 |
| 3105330 | מיצובישי יפן | OUTLANDER | 2014 | 02/09/2026 | 23:01:28 |
| 4233468 | ניסאן מקסיקו | TIIDA | 2009 | 02/09/2026 | 23:01:28 |
| 77416403 | מזדה יפן | MAZDA6 | 2024 | 02/09/2026 | 23:01:26 |
| 9472613 | שברולט ארהב" | - | 2013 | 02/09/2026 | 23:01:24 |
| 57528501 | סקודה צ'כיה | OCTAVIA | 2018 | 02/09/2026 | 23:01:23 |
| 47066301 | שברולט ארהב" | - | 2021 | 02/09/2026 | 23:01:21 |
| 14449103 | טויוטה יפן | RAV 4 HYBRID | 2022 | 02/09/2026 | 23:01:20 |
| 3719630 | מזדה יפן | CX-5 | 2017 | 02/09/2026 | 23:01:20 |
| 1092787 | הונדה מקסיקו | HR-V | 2017 | 02/09/2026 | 23:01:15 |
| 33333333 | ב מ וו גרמניה | M4 COMPETITION | 2026 | 02/09/2026 | 23:01:14 |
| 60509801 | מזדה יפן | CX-3 | 2019 | 02/09/2026 | 23:01:09 |
| 1849270 | קואנג יאנג טיו | - | 2010 | 02/09/2026 | 23:01:08 |
| 1201471 | פולקסווגן מקסיקה | JETTA | 2010 | 02/09/2026 | 23:01:03 |
| 3953330 | ב מ וו גרמניה | M4 | 2017 | 02/09/2026 | 23:00:58 |
| 92139901 | ב מ וו גרמניה | - | 2019 | 02/09/2026 | 23:00:55 |
| 87600301 | מרצדס גרמניה | A180 | 2020 | 02/09/2026 | 23:00:55 |
| 1110423 | סובארו יפן | אימפרזה 0061 TA | 1997 | 02/09/2026 | 23:00:54 |
| 4393335 | אאודי גרמניה | A4 | 2002 | 02/09/2026 | 23:00:52 |
| 2701334 | יונדאי קוריאה הדרומית | I25 | 2015 | 02/09/2026 | 23:00:52 |
| 7214632 | מרוטי סוזוקי הודו | ALTO | 2014 | 02/09/2026 | 23:00:50 |
| 5296133 | קיה קוריאה הדרומית | PICANTO | 2015 | 02/09/2026 | 23:00:49 |
| 1089785 | קיה קוריאה הדרומית | FORTE | 2016 | 02/09/2026 | 23:00:48 |
| 48294004 | גילי סין | EX5 | 2025 | 02/09/2026 | 23:00:46 |
| 1758572 | קיה קוריאה הדרומית | FORTE | 2010 | 02/09/2026 | 23:00:45 |
| 1451512 | ימהה יפן | - | 2013 | 02/09/2026 | 23:00:44 |
| 9358871 | מרכבי נוע בעמ | - | 2010 | 02/09/2026 | 23:00:42 |
| 5055376 | יונדאי צ'כיה | I30 | 2011 | 02/09/2026 | 23:00:40 |
| 65745802 | טויוטה טורקיה | COROLLA HSD SDN | 2021 | 02/09/2026 | 23:00:39 |
| 35891403 | קיה קוריאה הדרומית | SELTOS | 2023 | 02/09/2026 | 23:00:37 |
| 77112202 | ימהה צרפת | - | 2022 | 02/09/2026 | 23:00:37 |
| 2216117 | הונדה יפן | CIVIC | 1996 | 02/09/2026 | 23:00:36 |
| 51544803 | גילי סין | GEOMETRY C | 2023 | 02/09/2026 | 23:00:35 |
| 46561702 | יונדאי קוריאה הדרומית | ELANTRA | 2021 | 02/09/2026 | 23:00:35 |
| 16985702 | סקודה צ'כיה | KODIAQ | 2020 | 02/09/2026 | 23:00:35 |
| 33977601 | מזדה יפן | MAZDA 3 | 2018 | 02/09/2026 | 23:00:34 |
| 6384719 | טויוטה יפן | COROLLA TERRA | 1998 | 02/09/2026 | 23:00:34 |
| 9620211 | קיה קוריאה הדרומית | FORTE | 2014 | 02/09/2026 | 23:00:32 |
| 22862502 | סקודה צ'כיה | KODIAQ | 2020 | 02/09/2026 | 23:00:30 |
| 2866468 | פיג'ו צרפת | 308 | 2009 | 02/09/2026 | 23:00:30 |
| 9891752 | פולקסווגן גרמניה | GOLF | 2014 | 02/09/2026 | 23:00:30 |
| 2380560 | שברולט ארהב" | - | 2006 | 02/09/2026 | 23:00:29 |
| 4996312 | סקודה צ'כיה | FABIA HATCH | 2013 | 02/09/2026 | 23:00:27 |
| 3080580 | סיאט ספרד | IBIZA | 2017 | 02/09/2026 | 23:00:26 |
| 55187503 | קיה קוריאה הדרומית | PICANTO | 2023 | 02/09/2026 | 23:00:25 |
| 60792904 | קיה סלובקיה | SPORTAGE HEV | 2026 | 02/09/2026 | 23:00:24 |
| 57528501 | סקודה צ'כיה | OCTAVIA | 2018 | 02/09/2026 | 23:00:21 |
| 4634752 | ניסאן בריטניה | NOTE | 2013 | 02/09/2026 | 23:00:20 |
| 81366301 | טויוטה טורקיה | COROLLA HSD SDN | 2019 | 02/09/2026 | 23:00:19 |
| 15029301 | קיה סלובקיה | SPORTAGE | 2018 | 02/09/2026 | 23:00:19 |
| 7466433 | סוזוקי הונגריה | SX4 CROSSOVER | 2015 | 02/09/2026 | 23:00:18 |
| 56320201 | פורד תורכיה | - | 2021 | 02/09/2026 | 23:00:18 |
| 46646703 | סקודה צ'כיה | OCTAVIA | 2023 | 02/09/2026 | 23:00:17 |
| 73576204 | טויוטה יפן | RAV 4 | 2026 | 02/09/2026 | 23:00:15 |
| 1414965 | סאן יאנג טיואן | - | 2008 | 02/09/2026 | 23:00:14 |
| 8924368 | מזדה יפן | MAZDA 3 | 2010 | 02/09/2026 | 23:00:13 |
| 1028672 | קיה קוריאה הדרומית | FORTE | 2009 | 02/09/2026 | 23:00:13 |
| 8432111 | מזדה יפן | MAZDA 2 | 2014 | 02/09/2026 | 23:00:12 |
| 70712604 | סקודה צ'כיה | SCALA FL | 2026 | 02/09/2026 | 23:00:12 |
| 1284039 | פיאט טורקיה | DOBLO | 2016 | 02/09/2026 | 23:00:11 |
| 4471908 | הונדה יפן | JAZZ | 2016 | 02/09/2026 | 23:00:07 |
| 92139901 | ב מ וו גרמניה | - | 2019 | 02/09/2026 | 23:00:05 |
| 50305403 | צ'רי סין | TIGGO 8 PRO | 2023 | 02/09/2026 | 23:00:04 |
| 33977601 | מזדה יפן | MAZDA 3 | 2018 | 02/09/2026 | 23:00:03 |
| 1044533 | פיאט איטליה | - | 2015 | 02/09/2026 | 23:00:03 |
| 1293071 | פולקסווגן גרמניה | GOLF | 2010 | 02/09/2026 | 23:00:02 |
| 9314855 | שברולט ארהב" | - | 1979 | 02/09/2026 | 23:00:02 |
| 4151571 | מזדה יפן | MAZDA 3 | 2010 | 02/09/2026 | 23:00:00 |
| 5538039 | מיצובישי תאילנד | ATTRAGE | 2016 | 02/09/2026 | 22:59:55 |
| 11358003 | מרצדס ארהב" | GLE400D COUPE | 2022 | 02/09/2026 | 22:59:55 |
| 8852566 | טויוטה יפן | COROLLA | 2009 | 02/09/2026 | 22:59:54 |
| 48103902 | קואנג יאנג סין | - | 2022 | 02/09/2026 | 22:59:51 |
| 93309501 | רנו טורקיה | FLUENCE | 2016 | 02/09/2026 | 22:59:50 |
| 40083401 | קרייזלר מכסיקו | - | 2018 | 02/09/2026 | 22:59:49 |
| 1721371 | סקודה צ'כיה | OCTAVIA | 2011 | 02/09/2026 | 22:59:47 |
| 17734202 | פולקסווגן ספרד | T-CROSS | 2020 | 02/09/2026 | 22:59:45 |
| 3728239 | איסוזו תאילנד | PICK - UP | 2016 | 02/09/2026 | 22:59:40 |
| 47155602 | מרצדס גרמניה | A250E | 2022 | 02/09/2026 | 22:59:38 |
| 18584001 | ניסאן בריטניה | QASHQAI | 2017 | 02/09/2026 | 22:59:36 |
| 6266812 | יונדאי הודו | I10 | 2012 | 02/09/2026 | 22:59:31 |
| 19824602 | יונדאי קוריאה הדרומית | IONIQ HYBRID | 2020 | 02/09/2026 | 22:59:29 |
| 8632330 | פולאריס פולין | - | 2015 | 02/09/2026 | 22:59:29 |
| 32979504 | מרצדס בנץ ספרד | - | 2026 | 02/09/2026 | 22:59:26 |
| 2493934 | יונדאי טורקיה | I10 | 2015 | 02/09/2026 | 22:59:22 |
| 40515604 | קיה קוריאה הדרומית | PICANTO | 2025 | 02/09/2026 | 22:59:21 |
| 8924368 | מזדה יפן | MAZDA 3 | 2010 | 02/09/2026 | 22:59:19 |
| 8025650 | טויוטה בריטניה | COROLLA RUNX | 2003 | 02/09/2026 | 22:59:18 |
| 4193162 | מזדה יפן | MAZDA 3 | 2007 | 02/09/2026 | 22:59:16 |
| 1629013 | שברולט ארהב" | MALIBU | 2006 | 02/09/2026 | 22:59:15 |
| 8025650 | טויוטה בריטניה | COROLLA RUNX | 2003 | 02/09/2026 | 22:59:15 |
| 55336202 | מ.ג סין | EHS PHEV | 2023 | 02/09/2026 | 22:59:15 |
| 7661630 | פיג'ו סלובקיה | 208 | 2014 | 02/09/2026 | 22:59:14 |
| 60599001 | ב מ וו גרמניה | X1 SDRIVE 18I | 2019 | 02/09/2026 | 22:59:12 |
| 1125968 | קרייזלר ארהב" | DODGE AVANGER | 2009 | 02/09/2026 | 22:59:11 |
| 76240201 | טויוטה יפן | PRIUS PLUS | 2019 | 02/09/2026 | 22:59:11 |
| 82846201 | רנו טורקיה | CLIO | 2019 | 02/09/2026 | 22:59:10 |
| 55101801 | מרצדס גרמניה | C300 | 2019 | 02/09/2026 | 22:59:02 |
| 1142674 | יונדאי צ'כיה | I30 | 2010 | 02/09/2026 | 22:59:00 |
| 2829376 | אביב סוכנויות | - | 2011 | 02/09/2026 | 22:59:00 |
| 70363602 | טויוטה ארהב" | HIGHLANDER | 2021 | 02/09/2026 | 22:58:58 |
| 3330551 | רנו ספרד | MEGANE | 2004 | 02/09/2026 | 22:58:58 |
| 6185816 | ב מ וו גרמניה | 740LI | 2009 | 02/09/2026 | 22:58:55 |
| 8924368 | מזדה יפן | MAZDA 3 | 2010 | 02/09/2026 | 22:58:55 |
| 5172738 | פולקסווגן גרמניה | GOLF | 2016 | 02/09/2026 | 22:58:54 |
| 80875402 | שברולט קוריאה הדרומית | TRAX | 2023 | 02/09/2026 | 22:58:53 |
| 2843862 | דייהטסו יפן | .SIRION | 2007 | 02/09/2026 | 22:58:51 |
| 4641536 | טויוטה יפן | COROLLA | 2002 | 02/09/2026 | 22:58:51 |
| 8938766 | טויוטה יפן | COROLLA | 2009 | 02/09/2026 | 22:58:50 |
| 4106434 | יונדאי טורקיה | I10 | 2015 | 02/09/2026 | 22:58:49 |
| 1421213 | פיג'ו ספרד | PARTNER | 2006 | 02/09/2026 | 22:58:44 |
| 5566239 | מיצובישי יפן | OUTLANDER | 2016 | 02/09/2026 | 22:58:44 |
| 4298063 | רנו צרפת | KANGOO | 2008 | 02/09/2026 | 22:58:41 |
| 2719634 | יונדאי טורקיה | I10 | 2015 | 02/09/2026 | 22:58:40 |
| 83007603 | בי ווי די סין | BYD DOLPHIN | 2024 | 02/09/2026 | 22:58:40 |
| 27214704 | טויוטה צרפת | YARIS CROSS | 2025 | 02/09/2026 | 22:58:39 |
| 52663903 | פיג'ו צרפת | 3008 | 2023 | 02/09/2026 | 22:58:38 |
| 1863154 | רנו צרפת | KANGOO | 2014 | 02/09/2026 | 22:58:36 |
| 2410966 | יונדאי טורקיה | ACCENT | 2008 | 02/09/2026 | 22:58:34 |
| 4999474 | טויוטה טורקיה | VERSO | 2011 | 02/09/2026 | 22:58:34 |
| 24676604 | סיטרואן בריטניה | JUMPY | 2025 | 02/09/2026 | 22:58:33 |
| 7568571 | טויוטה יפן | COROLLA | 2010 | 02/09/2026 | 22:58:32 |
| 5865629 | מזדה יפן | מזדה 323 F SITNAL TA | 1997 | 02/09/2026 | 22:58:31 |
| 8290331 | קיה סלובקיה | CEED | 2014 | 02/09/2026 | 22:58:31 |
| 76657004 | קאדילאק ארהב" | ESCALADE IQL | 2026 | 02/09/2026 | 22:58:29 |
| 76212502 | יונדאי קוריאה הדרומית | PALISADE | 2022 | 02/09/2026 | 22:58:28 |
| 45718602 | סקודה צ'כיה | OCTAVIA | 2021 | 02/09/2026 | 22:58:28 |
| 5489238 | סיאט ספרד | LEON | 2016 | 02/09/2026 | 22:58:25 |